Time;durP1;ratioP1;P1;durP2;ratioP2;P2;SDS_P1;SDS_P2;PMS_P1;PMS_P2;Temp;Humidity;BMP_temperature;BMP_pressure;BME280_temperature;BME280_humidity;BME280_pressure;Samples;Min_cycle;Max_cycle;Signal;HPM_P1;HPM_P2
2023/08/04 00:02:10;;;;;;;15.38;8.10;;;;;;;;;;5076781;28;20037;-71
2023/08/04 00:04:37;;;;;;;11.85;8.50;;;;;;;;;;5074755;28;20071;-71
2023/08/04 00:07:05;;;;;;;12.23;8.40;;;;;;;;;;5074647;28;20552;-71
2023/08/04 00:09:32;;;;;;;14.93;8.43;;;;;;;;;;5073331;28;20041;-70
2023/08/04 00:12:00;;;;;;;13.30;8.15;;;;;;;;;;5092731;28;20036;-70
2023/08/04 00:14:27;;;;;;;16.42;7.75;;;;;;;;;;5093649;28;20389;-70
2023/08/04 00:16:55;;;;;;;12.93;9.20;;;;;;;;;;5094835;28;20035;-70
2023/08/04 00:19:22;;;;;;;10.77;8.20;;;;;;;;;;5094803;28;20375;-70
2023/08/04 00:21:50;;;;;;;10.57;8.40;;;;;;;;;;5094666;28;20094;-71
2023/08/04 00:24:17;;;;;;;14.82;9.40;;;;;;;;;;5085449;28;20044;-71
2023/08/04 00:26:45;;;;;;;13.50;8.95;;;;;;;;;;5077348;28;20041;-71
2023/08/04 00:29:12;;;;;;;10.07;8.35;;;;;;;;;;5093979;28;20043;-70
2023/08/04 00:31:40;;;;;;;10.82;8.40;;;;;;;;;;5093182;28;20078;-71
2023/08/04 00:34:07;;;;;;;11.50;8.25;;;;;;;;;;5085969;28;20124;-71
2023/08/04 00:36:35;;;;;;;12.32;8.35;;;;;;;;;;5091486;28;20105;-70
2023/08/04 00:39:03;;;;;;;12.82;8.52;;;;;;;;;;5074794;28;20394;-71
2023/08/04 00:41:31;;;;;;;10.73;8.20;;;;;;;;;;5072209;28;20052;-71
2023/08/04 00:43:58;;;;;;;11.45;8.52;;;;;;;;;;5075744;28;20420;-71
2023/08/04 00:46:26;;;;;;;11.88;8.30;;;;;;;;;;5092958;28;20429;-71
2023/08/04 00:48:53;;;;;;;9.68;8.32;;;;;;;;;;5092569;28;20032;-71
2023/08/04 00:51:21;;;;;;;14.07;8.70;;;;;;;;;;5090940;28;20059;-71
2023/08/04 00:53:49;;;;;;;10.25;8.20;;;;;;;;;;5072663;28;20060;-72
2023/08/04 00:56:16;;;;;;;10.35;8.35;;;;;;;;;;5072412;28;20076;-71
2023/08/04 00:58:44;;;;;;;10.98;8.23;;;;;;;;;;5074803;28;20135;-70
2023/08/04 01:01:13;;;;;;;11.73;8.27;;;;;;;;;;5073697;28;20486;-70
2023/08/04 01:03:41;;;;;;;9.88;8.05;;;;;;;;;;5087532;28;20101;-70
2023/08/04 01:06:15;;;;;;;9.23;7.82;;;;;;;;;;5089726;28;20048;-71
2023/08/04 01:08:46;;;;;;;9.75;7.78;;;;;;;;;;5074536;28;20061;-72
2023/08/04 01:11:19;;;;;;;9.00;7.75;;;;;;;;;;5072299;28;20643;-71
2023/08/04 01:13:47;;;;;;;11.90;8.00;;;;;;;;;;5079581;28;20390;-72
2023/08/04 01:16:15;;;;;;;10.93;7.68;;;;;;;;;;5092440;28;20040;-71
2023/08/04 01:18:42;;;;;;;12.98;8.25;;;;;;;;;;5076731;28;20044;-71
2023/08/04 01:21:10;;;;;;;11.85;8.55;;;;;;;;;;5074710;28;20044;-71
2023/08/04 01:23:38;;;;;;;13.68;8.23;;;;;;;;;;5071959;28;20040;-72
2023/08/04 01:26:09;;;;;;;12.82;8.20;;;;;;;;;;5077152;28;20134;-72
2023/08/04 01:28:36;;;;;;;13.82;8.32;;;;;;;;;;5076054;28;20090;-71
2023/08/04 01:31:04;;;;;;;9.38;8.20;;;;;;;;;;5092245;28;20063;-71
2023/08/04 01:33:32;;;;;;;12.80;7.78;;;;;;;;;;5077711;28;20040;-72
2023/08/04 01:36:00;;;;;;;11.70;8.30;;;;;;;;;;5080922;28;20159;-71
2023/08/04 01:38:27;;;;;;;16.17;7.88;;;;;;;;;;5078726;28;20037;-72
2023/08/04 01:40:54;;;;;;;11.30;8.52;;;;;;;;;;5071482;28;20654;-71
2023/08/04 01:43:23;;;;;;;8.68;7.78;;;;;;;;;;5072802;28;20418;-72
2023/08/04 01:45:51;;;;;;;14.60;8.00;;;;;;;;;;5071601;28;20050;-71
2023/08/04 01:48:18;;;;;;;11.95;8.52;;;;;;;;;;5084503;28;20482;-71
2023/08/04 01:50:46;;;;;;;15.23;7.93;;;;;;;;;;5092964;28;20496;-71
2023/08/04 01:53:13;;;;;;;12.32;8.18;;;;;;;;;;5091607;28;20051;-71
2023/08/04 01:55:41;;;;;;;12.25;8.65;;;;;;;;;;5091937;28;20051;-71
2023/08/04 01:58:08;;;;;;;9.82;7.90;;;;;;;;;;5091508;28;20032;-71
2023/08/04 02:00:36;;;;;;;15.02;8.85;;;;;;;;;;5091449;28;20128;-71
2023/08/04 02:03:03;;;;;;;11.07;7.45;;;;;;;;;;5091550;28;20080;-70
2023/08/04 02:05:32;;;;;;;10.13;8.05;;;;;;;;;;5078896;28;20466;-71
2023/08/04 02:07:59;;;;;;;11.98;8.13;;;;;;;;;;5071126;28;20601;-71
2023/08/04 02:10:29;;;;;;;10.55;8.68;;;;;;;;;;5071159;28;20072;-71
2023/08/04 02:12:57;;;;;;;13.90;8.45;;;;;;;;;;5090591;28;20058;-71
2023/08/04 02:15:24;;;;;;;10.98;8.13;;;;;;;;;;5091237;28;20040;-71
2023/08/04 02:17:52;;;;;;;12.55;8.60;;;;;;;;;;5082557;28;20474;-71
2023/08/04 02:20:19;;;;;;;11.60;8.70;;;;;;;;;;5071161;28;20037;-71
2023/08/04 02:22:47;;;;;;;11.60;8.70;;;;;;;;;;5072530;28;20064;-71
2023/08/04 02:25:14;;;;;;;13.40;8.70;;;;;;;;;;5072272;28;20033;-70
2023/08/04 02:27:42;;;;;;;11.00;8.70;;;;;;;;;;5074260;28;20062;-71
2023/08/04 02:30:10;;;;;;;12.88;8.25;;;;;;;;;;5074196;28;20047;-71
2023/08/04 02:32:37;;;;;;;12.40;8.30;;;;;;;;;;5075130;28;20090;-71
2023/08/04 02:35:05;;;;;;;11.38;8.52;;;;;;;;;;5073703;28;20079;-71
2023/08/04 02:37:33;;;;;;;14.15;8.25;;;;;;;;;;5072125;28;20406;-71
2023/08/04 02:40:00;;;;;;;10.93;8.90;;;;;;;;;;5071045;28;20040;-71
2023/08/04 02:42:28;;;;;;;10.38;8.45;;;;;;;;;;5073278;28;20060;-71
2023/08/04 02:44:56;;;;;;;11.35;8.57;;;;;;;;;;5055917;28;20048;-71
2023/08/04 02:47:23;;;;;;;11.82;8.88;;;;;;;;;;5084772;28;20041;-70
2023/08/04 02:49:51;;;;;;;11.00;8.98;;;;;;;;;;5075435;28;20555;-71
2023/08/04 02:52:19;;;;;;;12.50;9.27;;;;;;;;;;5078274;28;20113;-70
2023/08/04 02:54:47;;;;;;;10.40;8.30;;;;;;;;;;5079560;28;20415;-71
2023/08/04 02:57:14;;;;;;;12.73;8.95;;;;;;;;;;5082935;28;20043;-71
2023/08/04 02:59:41;;;;;;;12.02;8.63;;;;;;;;;;5074850;28;20052;-71
2023/08/04 03:02:09;;;;;;;17.63;9.20;;;;;;;;;;5072880;28;20045;-71
2023/08/04 03:04:39;;;;;;;12.30;8.95;;;;;;;;;;5079508;28;20487;-71
2023/08/04 03:07:07;;;;;;;11.70;8.68;;;;;;;;;;5078014;28;20036;-71
2023/08/04 03:09:34;;;;;;;15.65;8.55;;;;;;;;;;5092480;28;20394;-71
2023/08/04 03:12:01;;;;;;;10.80;8.80;;;;;;;;;;5096123;28;20044;-70
2023/08/04 03:14:29;;;;;;;13.77;8.57;;;;;;;;;;5087056;28;20425;-71
2023/08/04 03:16:56;;;;;;;11.73;9.32;;;;;;;;;;5076522;28;20041;-71
2023/08/04 03:19:24;;;;;;;14.50;9.40;;;;;;;;;;5078984;28;20124;-71
2023/08/04 03:21:51;;;;;;;11.85;8.90;;;;;;;;;;5075411;28;20047;-71
2023/08/04 03:24:19;;;;;;;14.10;9.30;;;;;;;;;;5093521;28;20051;-70
2023/08/04 03:26:46;;;;;;;10.65;8.63;;;;;;;;;;5095567;28;20119;-71
2023/08/04 03:29:14;;;;;;;10.93;9.13;;;;;;;;;;5095594;28;20501;-70
2023/08/04 03:31:42;;;;;;;19.02;9.18;;;;;;;;;;5087773;28;20036;-70
2023/08/04 03:34:09;;;;;;;12.02;9.18;;;;;;;;;;5079884;28;20044;-70
2023/08/04 03:36:37;;;;;;;12.05;9.25;;;;;;;;;;5079964;28;20061;-70
2023/08/04 03:39:04;;;;;;;14.00;9.88;;;;;;;;;;5089396;28;20036;-71
2023/08/04 03:41:32;;;;;;;16.25;9.25;;;;;;;;;;5080127;28;20046;-70
2023/08/04 03:43:59;;;;;;;11.82;8.73;;;;;;;;;;5084360;28;20083;-70
2023/08/04 03:46:27;;;;;;;15.45;9.80;;;;;;;;;;5088431;28;20040;-71
2023/08/04 03:48:55;;;;;;;15.07;9.55;;;;;;;;;;5084670;28;20041;-71
2023/08/04 03:51:22;;;;;;;16.15;9.30;;;;;;;;;;5075680;28;20083;-70
2023/08/04 03:53:50;;;;;;;13.85;9.50;;;;;;;;;;5089631;28;20052;-70
2023/08/04 03:56:17;;;;;;;13.25;9.65;;;;;;;;;;5075753;28;20036;-70
2023/08/04 03:58:45;;;;;;;15.93;9.07;;;;;;;;;;5075947;28;20070;-70
2023/08/04 04:01:12;;;;;;;16.70;10.75;;;;;;;;;;5083744;28;20040;-71
2023/08/04 04:03:40;;;;;;;14.75;9.85;;;;;;;;;;5081175;28;20048;-71
2023/08/04 04:06:08;;;;;;;14.93;10.07;;;;;;;;;;5094822;28;20447;-70
2023/08/04 04:08:35;;;;;;;13.75;10.10;;;;;;;;;;5094821;28;20075;-70
2023/08/04 04:11:03;;;;;;;12.98;8.75;;;;;;;;;;5077701;28;20535;-70
2023/08/04 04:13:30;;;;;;;15.80;9.68;;;;;;;;;;5076504;28;20044;-70
2023/08/04 04:15:58;;;;;;;17.20;9.57;;;;;;;;;;5075666;28;20052;-70
2023/08/04 04:18:25;;;;;;;14.90;9.75;;;;;;;;;;5072950;28;20119;-70
2023/08/04 04:20:53;;;;;;;14.50;9.05;;;;;;;;;;5074564;28;20032;-70
2023/08/04 04:23:20;;;;;;;14.23;9.48;;;;;;;;;;5080123;28;20042;-70
2023/08/04 04:25:50;;;;;;;16.25;9.48;;;;;;;;;;5089374;28;20127;-70
2023/08/04 04:28:17;;;;;;;14.18;9.27;;;;;;;;;;5078792;28;20036;-70
2023/08/04 04:30:45;;;;;;;13.35;9.15;;;;;;;;;;5074128;28;20097;-71
2023/08/04 04:33:12;;;;;;;14.15;9.73;;;;;;;;;;5078587;28;20036;-70
2023/08/04 04:35:47;;;;;;;12.65;8.98;;;;;;;;;;5074865;28;20116;-70
2023/08/04 04:38:14;;;;;;;10.65;9.07;;;;;;;;;;5075453;28;20049;-70
2023/08/04 04:40:42;;;;;;;14.02;8.80;;;;;;;;;;5084665;28;20104;-72
2023/08/04 04:43:09;;;;;;;10.10;8.70;;;;;;;;;;5075107;28;20045;-70
2023/08/04 04:45:37;;;;;;;14.02;9.50;;;;;;;;;;5090484;28;20040;-70
2023/08/04 04:48:04;;;;;;;15.60;8.80;;;;;;;;;;5087093;28;20041;-69
2023/08/04 04:50:32;;;;;;;14.23;10.15;;;;;;;;;;5079555;28;20571;-70
2023/08/04 04:52:59;;;;;;;13.43;9.82;;;;;;;;;;5086678;28;20482;-70
2023/08/04 04:55:27;;;;;;;13.23;9.20;;;;;;;;;;5095719;28;20430;-70
2023/08/04 04:57:54;;;;;;;16.77;8.38;;;;;;;;;;5095539;28;20051;-70
2023/08/04 05:00:22;;;;;;;12.70;8.50;;;;;;;;;;5080465;28;20048;-70
2023/08/04 05:02:49;;;;;;;13.98;8.88;;;;;;;;;;5080554;28;20401;-70
2023/08/04 05:05:17;;;;;;;13.02;8.93;;;;;;;;;;5093593;28;20554;-70
2023/08/04 05:07:45;;;;;;;10.43;8.30;;;;;;;;;;5084130;28;20032;-69
2023/08/04 05:10:12;;;;;;;10.88;8.70;;;;;;;;;;5074758;28;20044;-70
2023/08/04 05:12:39;;;;;;;12.63;8.98;;;;;;;;;;5074139;28;20028;-72
2023/08/04 05:15:07;;;;;;;10.55;8.73;;;;;;;;;;5086625;28;20036;-70
2023/08/04 05:17:35;;;;;;;13.63;8.80;;;;;;;;;;5083963;28;20098;-70
2023/08/04 05:20:04;;;;;;;13.02;9.52;;;;;;;;;;5086306;28;20051;-70
2023/08/04 05:22:31;;;;;;;13.85;10.95;;;;;;;;;;5080149;28;20047;-70
2023/08/04 05:24:58;;;;;;;11.93;8.90;;;;;;;;;;5084948;28;20049;-70
2023/08/04 05:27:37;;;;;;;10.27;9.15;;;;;;;;;;5073663;28;20062;-70
2023/08/04 05:30:05;;;;;;;12.85;9.05;;;;;;;;;;5071750;28;20064;-70
2023/08/04 05:32:33;;;;;;;11.48;8.93;;;;;;;;;;5076668;28;20105;-70
2023/08/04 05:35:00;;;;;;;11.32;9.18;;;;;;;;;;5075203;28;20040;-70
2023/08/04 05:37:28;;;;;;;12.27;8.80;;;;;;;;;;5078282;28;20036;-70
2023/08/04 05:39:55;;;;;;;10.05;8.75;;;;;;;;;;5084895;28;20048;-70
2023/08/04 05:42:23;;;;;;;14.70;9.07;;;;;;;;;;5071920;28;20040;-70
2023/08/04 05:44:50;;;;;;;11.27;8.63;;;;;;;;;;5074822;28;20036;-70
2023/08/04 05:47:19;;;;;;;11.93;9.48;;;;;;;;;;5088386;28;20048;-70
2023/08/04 05:49:47;;;;;;;11.27;8.95;;;;;;;;;;5080251;28;20037;-70
2023/08/04 05:52:15;;;;;;;10.48;8.60;;;;;;;;;;5072935;28;20060;-70
2023/08/04 05:54:42;;;;;;;12.02;9.13;;;;;;;;;;5074309;28;20040;-70
2023/08/04 05:57:10;;;;;;;10.88;8.55;;;;;;;;;;5079188;28;20044;-70
2023/08/04 05:59:37;;;;;;;11.52;8.73;;;;;;;;;;5076005;28;20045;-70
2023/08/04 06:02:05;;;;;;;12.00;8.68;;;;;;;;;;5086238;28;20115;-70
2023/08/04 06:04:32;;;;;;;10.82;9.15;;;;;;;;;;5091608;28;20131;-70
2023/08/04 06:07:00;;;;;;;10.70;8.85;;;;;;;;;;5091602;28;20089;-70
2023/08/04 06:09:27;;;;;;;9.82;7.95;;;;;;;;;;5083711;28;20036;-70
2023/08/04 06:11:55;;;;;;;14.60;9.10;;;;;;;;;;5072602;28;20041;-70
2023/08/04 06:14:22;;;;;;;13.07;8.93;;;;;;;;;;5071223;28;20047;-71
2023/08/04 06:16:50;;;;;;;11.05;8.50;;;;;;;;;;5072619;28;20086;-70
2023/08/04 06:19:17;;;;;;;10.35;9.25;;;;;;;;;;5072539;28;20547;-68
2023/08/04 06:21:45;;;;;;;12.27;9.63;;;;;;;;;;5072345;28;20068;-68
2023/08/04 06:24:25;;;;;;;10.15;8.30;;;;;;;;;;5072634;28;20091;-68
2023/08/04 06:26:53;;;;;;;10.27;8.48;;;;;;;;;;5072464;28;20123;-68
2023/08/04 06:29:20;;;;;;;10.98;8.10;;;;;;;;;;5072335;28;20394;-68
2023/08/04 06:31:48;;;;;;;9.50;8.38;;;;;;;;;;5072129;28;20049;-68
2023/08/04 06:34:19;;;;;;;9.65;8.27;;;;;;;;;;5072208;28;20041;-68
2023/08/04 06:36:47;;;;;;;9.98;8.23;;;;;;;;;;5072208;28;20044;-67
2023/08/04 06:39:14;;;;;;;12.95;8.57;;;;;;;;;;5075435;28;20535;-74
2023/08/04 06:41:42;;;;;;;11.32;8.13;;;;;;;;;;5076439;28;20036;-71
2023/08/04 06:44:10;;;;;;;9.40;8.40;;;;;;;;;;5076447;28;20461;-68
2023/08/04 06:46:37;;;;;;;10.85;8.07;;;;;;;;;;5076242;28;20060;-68
2023/08/04 06:49:05;;;;;;;10.40;8.77;;;;;;;;;;5097189;28;20040;-68
2023/08/04 06:51:32;;;;;;;11.15;8.45;;;;;;;;;;5081069;28;20485;-68
2023/08/04 06:54:00;;;;;;;8.63;7.80;;;;;;;;;;5084068;28;20075;-68
2023/08/04 06:56:27;;;;;;;8.70;7.63;;;;;;;;;;5081963;28;20500;-68
2023/08/04 06:58:55;;;;;;;9.88;8.82;;;;;;;;;;5098683;28;20446;-69
2023/08/04 07:01:23;;;;;;;9.35;7.97;;;;;;;;;;5096235;28;20040;-68
2023/08/04 07:03:50;;;;;;;9.15;7.80;;;;;;;;;;5080989;28;20480;-68
2023/08/04 07:06:18;;;;;;;13.80;8.18;;;;;;;;;;5081944;28;20046;-68
2023/08/04 07:08:45;;;;;;;10.55;7.93;;;;;;;;;;5075884;28;20036;-68
2023/08/04 07:11:17;;;;;;;8.93;7.85;;;;;;;;;;5075925;28;20052;-68
2023/08/04 07:13:45;;;;;;;8.35;7.55;;;;;;;;;;5075902;28;20047;-69
2023/08/04 07:16:12;;;;;;;9.02;7.63;;;;;;;;;;5075946;28;20170;-68
2023/08/04 07:18:41;;;;;;;13.93;7.95;;;;;;;;;;5075696;28;20047;-69
2023/08/04 07:21:12;;;;;;;11.68;7.65;;;;;;;;;;5075767;28;20048;-68
2023/08/04 07:23:40;;;;;;;9.63;8.10;;;;;;;;;;5075724;28;20036;-68
2023/08/04 07:26:08;;;;;;;8.32;7.53;;;;;;;;;;5075668;28;20105;-68
2023/08/04 07:28:36;;;;;;;8.90;7.13;;;;;;;;;;5075469;28;20486;-68
2023/08/04 07:31:08;;;;;;;9.93;7.63;;;;;;;;;;5075737;28;20041;-68
2023/08/04 07:33:36;;;;;;;8.65;7.82;;;;;;;;;;5074538;28;20102;-68
2023/08/04 07:36:04;;;;;;;10.27;7.65;;;;;;;;;;5074323;28;20041;-68
2023/08/04 07:38:32;;;;;;;12.77;8.93;;;;;;;;;;5075569;28;20113;-68
2023/08/04 07:41:00;;;;;;;8.48;7.60;;;;;;;;;;5075299;28;20070;-68
2023/08/04 07:43:27;;;;;;;8.65;7.35;;;;;;;;;;5075292;28;20039;-68
2023/08/04 07:45:55;;;;;;;10.05;7.88;;;;;;;;;;5075308;28;20052;-69
2023/08/04 07:48:22;;;;;;;8.70;7.28;;;;;;;;;;5075697;28;20443;-68
2023/08/04 07:50:50;;;;;;;8.52;7.72;;;;;;;;;;5074908;28;20050;-68
2023/08/04 07:53:18;;;;;;;9.75;7.70;;;;;;;;;;5075143;28;20051;-68
2023/08/04 07:55:58;;;;;;;9.50;8.00;;;;;;;;;;5075041;28;20128;-69
2023/08/04 07:58:25;;;;;;;10.13;7.50;;;;;;;;;;5074949;28;20052;-68
2023/08/04 08:00:53;;;;;;;9.60;7.63;;;;;;;;;;5073889;28;20044;-69
2023/08/04 08:03:21;;;;;;;9.73;7.65;;;;;;;;;;5073736;28;20041;-69
2023/08/04 08:05:48;;;;;;;8.38;7.53;;;;;;;;;;5074971;28;20139;-69
2023/08/04 08:08:19;;;;;;;12.20;7.65;;;;;;;;;;5074884;28;20043;-68
2023/08/04 08:10:46;;;;;;;9.30;8.30;;;;;;;;;;5074646;28;20044;-69
2023/08/04 08:13:13;;;;;;;10.23;8.15;;;;;;;;;;5074851;28;20040;-69
2023/08/04 08:15:41;;;;;;;23.40;9.38;;;;;;;;;;5074664;28;20116;-69
2023/08/04 08:18:08;;;;;;;8.55;7.53;;;;;;;;;;5073451;28;20040;-69
2023/08/04 08:20:39;;;;;;;11.90;7.90;;;;;;;;;;5074592;28;20051;-68
2023/08/04 08:23:07;;;;;;;10.25;8.57;;;;;;;;;;5074599;28;20055;-68
2023/08/04 08:25:35;;;;;;;9.63;7.93;;;;;;;;;;5074519;28;20042;-68
2023/08/04 08:28:03;;;;;;;10.13;8.63;;;;;;;;;;5074383;28;20402;-69
2023/08/04 08:30:31;;;;;;;10.63;8.23;;;;;;;;;;5074411;28;20136;-69
2023/08/04 08:32:58;;;;;;;8.38;7.50;;;;;;;;;;5074685;28;20040;-69
2023/08/04 08:35:26;;;;;;;13.45;7.97;;;;;;;;;;5074509;28;20240;-70
2023/08/04 08:37:53;;;;;;;9.27;7.60;;;;;;;;;;5074352;28;20498;-69
2023/08/04 08:40:23;;;;;;;15.70;10.07;;;;;;;;;;5074366;28;20037;-69
2023/08/04 08:42:51;;;;;;;11.15;8.18;;;;;;;;;;5074337;28;20110;-69
2023/08/04 08:45:19;;;;;;;9.73;7.97;;;;;;;;;;5074163;28;20037;-69
2023/08/04 08:47:49;;;;;;;9.75;7.97;;;;;;;;;;5074276;28;20040;-70
2023/08/04 08:50:18;;;;;;;8.38;7.55;;;;;;;;;;5073878;28;20040;-69
2023/08/04 08:52:50;;;;;;;9.10;8.20;;;;;;;;;;5074073;28;20049;-69
2023/08/04 08:55:18;;;;;;;9.20;8.07;;;;;;;;;;5074008;28;20533;-68
2023/08/04 08:57:45;;;;;;;10.40;7.65;;;;;;;;;;5073931;28;20551;-69
2023/08/04 09:00:13;;;;;;;9.90;8.10;;;;;;;;;;5073359;28;20056;-69
2023/08/04 09:02:41;;;;;;;16.23;9.60;;;;;;;;;;5073572;28;20040;-69
2023/08/04 09:05:09;;;;;;;10.75;7.80;;;;;;;;;;5073805;28;20037;-69
2023/08/04 09:07:37;;;;;;;8.55;7.68;;;;;;;;;;5073756;28;20052;-69
2023/08/04 09:10:04;;;;;;;11.73;8.70;;;;;;;;;;5073771;28;20493;-69
2023/08/04 09:12:32;;;;;;;9.50;8.60;;;;;;;;;;5073532;28;20478;-68
2023/08/04 09:15:01;;;;;;;10.18;7.72;;;;;;;;;;5073565;28;20036;-68
2023/08/04 09:17:29;;;;;;;10.68;7.82;;;;;;;;;;5073546;28;20051;-69
2023/08/04 09:19:58;;;;;;;15.38;10.90;;;;;;;;;;5073502;28;20052;-69
2023/08/04 09:22:26;;;;;;;11.20;8.25;;;;;;;;;;5072181;28;20055;-68
2023/08/04 09:24:58;;;;;;;11.13;8.57;;;;;;;;;;5073410;28;20745;-69
2023/08/04 09:27:37;;;;;;;9.65;8.35;;;;;;;;;;5073387;28;20036;-69
2023/08/04 09:30:09;;;;;;;8.73;7.75;;;;;;;;;;5073402;28;20044;-69
2023/08/04 09:32:43;;;;;;;11.75;7.93;;;;;;;;;;5073243;28;20048;-69
2023/08/04 09:35:11;;;;;;;11.68;7.80;;;;;;;;;;5073260;28;20495;-69
2023/08/04 09:37:39;;;;;;;8.43;7.40;;;;;;;;;;5073061;28;20418;-69
2023/08/04 09:40:13;;;;;;;9.20;7.78;;;;;;;;;;5073576;28;20052;-69
2023/08/04 09:42:44;;;;;;;9.02;7.75;;;;;;;;;;5073189;28;20393;-69
2023/08/04 09:45:13;;;;;;;9.40;6.95;;;;;;;;;;5073094;28;20494;-70
2023/08/04 09:47:45;;;;;;;10.38;7.15;;;;;;;;;;5073009;28;20526;-69
2023/08/04 09:50:13;;;;;;;9.00;7.05;;;;;;;;;;5072980;28;20038;-70
2023/08/04 09:52:41;;;;;;;8.23;7.35;;;;;;;;;;5072680;28;20079;-69
2023/08/04 09:55:09;;;;;;;7.90;7.10;;;;;;;;;;5072901;28;20040;-69
2023/08/04 09:57:37;;;;;;;9.68;6.93;;;;;;;;;;5071674;28;20040;-69
2023/08/04 10:00:07;;;;;;;7.70;6.90;;;;;;;;;;5073032;28;20433;-70
2023/08/04 10:02:35;;;;;;;9.52;7.68;;;;;;;;;;5072725;28;20052;-70
2023/08/04 10:05:04;;;;;;;10.93;8.07;;;;;;;;;;5072813;28;20063;-70
2023/08/04 10:07:31;;;;;;;8.27;7.47;;;;;;;;;;5071502;28;20056;-70
2023/08/04 10:10:00;;;;;;;8.90;7.03;;;;;;;;;;5072724;28;20032;-70
2023/08/04 10:12:29;;;;;;;8.75;6.60;;;;;;;;;;5072578;28;20383;-70
2023/08/04 10:14:57;;;;;;;7.65;6.95;;;;;;;;;;5072989;28;20502;-70
2023/08/04 10:17:26;;;;;;;8.35;6.53;;;;;;;;;;5072677;28;20040;-70
2023/08/04 10:20:02;;;;;;;7.55;6.70;;;;;;;;;;5072819;28;20056;-69
2023/08/04 10:22:30;;;;;;;9.77;7.65;;;;;;;;;;5072946;28;20064;-70
2023/08/04 10:24:57;;;;;;;9.65;8.65;;;;;;;;;;5074759;28;20067;-71
2023/08/04 10:27:25;;;;;;;11.18;6.72;;;;;;;;;;5072734;28;20052;-69
2023/08/04 10:30:10;;;;;;;9.18;7.03;;;;;;;;;;5072383;28;20044;-70
2023/08/04 10:32:39;;;;;;;9.48;7.47;;;;;;;;;;5072335;28;20052;-70
2023/08/04 10:35:19;;;;;;;14.68;7.47;;;;;;;;;;5072514;28;20060;-71
2023/08/04 10:37:49;;;;;;;8.48;6.97;;;;;;;;;;5072502;28;20048;-70
2023/08/04 10:40:34;;;;;;;8.57;7.00;;;;;;;;;;5072653;28;20033;-70
2023/08/04 10:43:05;;;;;;;9.45;7.05;;;;;;;;;;5072486;28;20045;-71
2023/08/04 10:45:52;;;;;;;8.82;7.95;;;;;;;;;;5072251;28;20127;-71
2023/08/04 10:48:21;;;;;;;9.10;7.10;;;;;;;;;;5072423;28;20598;-71
2023/08/04 10:50:50;;;;;;;7.70;6.90;;;;;;;;;;5072321;28;20051;-70
2023/08/04 10:53:17;;;;;;;12.10;9.68;;;;;;;;;;5072353;28;20037;-70
2023/08/04 10:55:52;;;;;;;9.77;7.40;;;;;;;;;;5072321;28;20032;-70
2023/08/04 10:58:19;;;;;;;10.98;7.07;;;;;;;;;;5072184;28;20044;-70
2023/08/04 11:00:52;;;;;;;9.50;7.50;;;;;;;;;;5072081;28;20115;-71
2023/08/04 11:03:21;;;;;;;7.57;6.75;;;;;;;;;;5072175;28;20044;-70
2023/08/04 11:05:52;;;;;;;7.35;6.63;;;;;;;;;;5072146;28;20045;-70
2023/08/04 11:08:20;;;;;;;41.28;9.15;;;;;;;;;;5072067;28;20303;-70
2023/08/04 11:10:49;;;;;;;7.63;6.93;;;;;;;;;;5072089;28;20049;-70
2023/08/04 11:13:18;;;;;;;8.25;7.43;;;;;;;;;;5071931;28;20074;-70
2023/08/04 11:15:47;;;;;;;8.70;6.60;;;;;;;;;;5072000;28;20441;-70
2023/08/04 11:18:16;;;;;;;9.20;7.35;;;;;;;;;;5072427;28;20090;-70
2023/08/04 11:20:43;;;;;;;8.13;7.28;;;;;;;;;;5071877;28;20052;-71
2023/08/04 11:23:12;;;;;;;8.55;7.50;;;;;;;;;;5071936;28;20045;-70
2023/08/04 11:25:40;;;;;;;9.27;6.70;;;;;;;;;;5075455;28;20036;-70
2023/08/04 11:28:08;;;;;;;8.00;7.20;;;;;;;;;;5075649;28;20483;-70
2023/08/04 11:30:36;;;;;;;7.88;6.70;;;;;;;;;;5075671;28;20470;-70
2023/08/04 11:33:04;;;;;;;7.43;6.65;;;;;;;;;;5073580;28;20055;-70
2023/08/04 11:35:32;;;;;;;8.70;7.18;;;;;;;;;;5073984;28;20032;-71
2023/08/04 11:38:00;;;;;;;7.53;6.72;;;;;;;;;;5075733;28;20121;-70
2023/08/04 11:40:28;;;;;;;8.27;7.22;;;;;;;;;;5075407;28;20419;-70
2023/08/04 11:42:59;;;;;;;10.05;7.20;;;;;;;;;;5075371;28;20402;-69
2023/08/04 11:45:32;;;;;;;8.82;7.95;;;;;;;;;;5075311;28;20044;-70
2023/08/04 11:48:01;;;;;;;8.40;7.13;;;;;;;;;;5075371;28;20036;-70
2023/08/04 11:50:28;;;;;;;8.07;6.90;;;;;;;;;;5075232;28;20765;-70
2023/08/04 11:52:56;;;;;;;8.82;7.15;;;;;;;;;;5075290;28;20094;-70
2023/08/04 11:55:23;;;;;;;8.65;7.68;;;;;;;;;;5075250;28;20075;-71
2023/08/04 11:57:51;;;;;;;8.00;7.20;;;;;;;;;;5075007;28;20102;-71
2023/08/04 12:00:40;;;;;;;8.27;7.05;;;;;;;;;;5075050;28;20057;-70
2023/08/04 12:03:08;;;;;;;7.65;6.95;;;;;;;;;;5075333;28;20036;-69
2023/08/04 12:05:38;;;;;;;8.02;6.50;;;;;;;;;;5075080;28;20041;-71
2023/08/04 12:08:13;;;;;;;7.72;7.03;;;;;;;;;;5074884;28;20036;-70
2023/08/04 12:10:42;;;;;;;8.38;7.55;;;;;;;;;;5074862;28;20087;-70
2023/08/04 12:13:29;;;;;;;8.68;7.70;;;;;;;;;;5074732;28;20045;-69
2023/08/04 12:15:57;;;;;;;8.88;8.07;;;;;;;;;;5075023;28;20123;-70
2023/08/04 12:18:25;;;;;;;9.25;7.13;;;;;;;;;;5075148;28;20045;-69
2023/08/04 12:20:53;;;;;;;9.38;7.35;;;;;;;;;;5075212;28;20056;-72
2023/08/04 12:23:20;;;;;;;8.20;6.60;;;;;;;;;;5074595;28;20111;-69
2023/08/04 12:25:48;;;;;;;7.53;6.82;;;;;;;;;;5074628;28;20454;-69
2023/08/04 12:28:16;;;;;;;8.35;7.03;;;;;;;;;;5074467;28;20573;-71
2023/08/04 12:30:46;;;;;;;7.70;6.97;;;;;;;;;;5074569;28;20068;-70
2023/08/04 12:33:30;;;;;;;7.53;6.80;;;;;;;;;;5074455;28;20052;-71
2023/08/04 12:35:58;;;;;;;7.47;6.72;;;;;;;;;;5073406;28;20036;-71
2023/08/04 12:38:25;;;;;;;9.13;7.40;;;;;;;;;;5074384;28;20421;-69
2023/08/04 12:40:53;;;;;;;8.18;6.30;;;;;;;;;;5074334;28;20090;-71
2023/08/04 12:43:20;;;;;;;7.75;6.82;;;;;;;;;;5074430;28;20044;-70
2023/08/04 12:45:48;;;;;;;8.05;6.65;;;;;;;;;;5074175;28;20119;-71
2023/08/04 12:48:20;;;;;;;7.97;6.47;;;;;;;;;;5074313;28;20071;-70
2023/08/04 12:50:47;;;;;;;7.38;6.15;;;;;;;;;;5072975;28;20150;-70
2023/08/04 12:53:15;;;;;;;7.20;6.15;;;;;;;;;;5072784;28;20048;-69
2023/08/04 12:55:42;;;;;;;7.40;6.63;;;;;;;;;;5074129;28;20042;-69
2023/08/04 12:58:10;;;;;;;9.82;6.85;;;;;;;;;;5074244;28;20036;-71
2023/08/04 13:00:38;;;;;;;7.70;6.55;;;;;;;;;;5073915;28;20056;-73
2023/08/04 13:03:05;;;;;;;6.90;6.30;;;;;;;;;;5073987;28;20469;-70
2023/08/04 13:05:33;;;;;;;8.77;6.88;;;;;;;;;;5073826;28;20403;-70
2023/08/04 13:08:01;;;;;;;7.32;6.50;;;;;;;;;;5073898;28;20052;-70
2023/08/04 13:10:28;;;;;;;7.28;6.10;;;;;;;;;;5074070;28;20041;-70
2023/08/04 13:13:00;;;;;;;6.63;6.03;;;;;;;;;;5089292;28;20123;-69
2023/08/04 13:15:28;;;;;;;6.80;6.10;;;;;;;;;;5086710;28;20044;-70
2023/08/04 13:17:56;;;;;;;7.00;5.90;;;;;;;;;;5080902;28;20375;-70
2023/08/04 13:20:23;;;;;;;7.47;6.70;;;;;;;;;;5066891;28;20090;-71
2023/08/04 13:22:51;;;;;;;6.80;6.10;;;;;;;;;;5077168;28;20040;-70
2023/08/04 13:25:18;;;;;;;8.50;7.70;;;;;;;;;;5074099;28;20035;-71
2023/08/04 13:27:46;;;;;;;6.50;5.90;;;;;;;;;;5074752;28;20040;-71
2023/08/04 13:30:14;;;;;;;6.22;5.63;;;;;;;;;;5075883;28;20493;-71
2023/08/04 13:32:41;;;;;;;10.00;6.15;;;;;;;;;;5086275;28;20112;-72
2023/08/04 13:35:09;;;;;;;7.00;5.65;;;;;;;;;;5080903;28;20044;-71
2023/08/04 13:37:36;;;;;;;13.40;6.47;;;;;;;;;;5073303;28;20039;-72
2023/08/04 13:40:04;;;;;;;6.97;6.28;;;;;;;;;;5076079;28;20109;-72
2023/08/04 13:42:32;;;;;;;7.47;5.80;;;;;;;;;;5077508;28;20105;-71
2023/08/04 13:44:59;;;;;;;9.38;5.72;;;;;;;;;;5079992;28;20040;-72
2023/08/04 13:47:26;;;;;;;7.13;6.35;;;;;;;;;;5075231;28;20715;-71
2023/08/04 13:49:54;;;;;;;17.88;6.40;;;;;;;;;;5082875;28;20048;-71
2023/08/04 13:52:22;;;;;;;11.90;6.57;;;;;;;;;;5077361;28;20048;-70
2023/08/04 13:54:49;;;;;;;8.55;6.60;;;;;;;;;;5074364;28;20060;-72
2023/08/04 13:57:17;;;;;;;10.20;6.75;;;;;;;;;;5072027;28;20047;-71
2023/08/04 14:00:05;;;;;;;8.27;6.57;;;;;;;;;;5092316;28;20196;-72
2023/08/04 14:02:33;;;;;;;7.50;6.32;;;;;;;;;;5092865;28;20065;-69
2023/08/04 14:05:00;;;;;;;8.18;6.47;;;;;;;;;;5092557;28;20044;-70
2023/08/04 14:07:28;;;;;;;8.77;6.35;;;;;;;;;;5088660;28;20051;-72
2023/08/04 14:09:56;;;;;;;8.02;5.45;;;;;;;;;;5090740;28;20532;-70
2023/08/04 14:12:24;;;;;;;6.50;5.90;;;;;;;;;;5077403;28;20046;-69
2023/08/04 14:14:55;;;;;;;7.28;6.45;;;;;;;;;;5072563;28;20052;-70
2023/08/04 14:17:22;;;;;;;9.75;6.00;;;;;;;;;;5072391;28;20040;-69
2023/08/04 14:19:50;;;;;;;7.65;5.97;;;;;;;;;;5074887;28;20132;-69
2023/08/04 14:22:17;;;;;;;12.05;6.00;;;;;;;;;;5072430;28;20063;-69
2023/08/04 14:24:45;;;;;;;6.90;5.75;;;;;;;;;;5085402;28;20044;-69
2023/08/04 14:27:12;;;;;;;6.47;5.88;;;;;;;;;;5092348;28;20047;-69
2023/08/04 14:29:54;;;;;;;7.95;5.97;;;;;;;;;;5092421;28;20059;-70
2023/08/04 14:32:22;;;;;;;7.13;5.80;;;;;;;;;;5099189;28;20397;-69
2023/08/04 14:34:49;;;;;;;6.47;5.88;;;;;;;;;;5077799;28;20032;-69
2023/08/04 14:37:17;;;;;;;7.55;5.63;;;;;;;;;;5080588;28;20120;-69
2023/08/04 14:39:45;;;;;;;7.47;5.93;;;;;;;;;;5078644;28;20028;-69
2023/08/04 14:42:12;;;;;;;7.28;5.85;;;;;;;;;;5084275;28;20032;-69
2023/08/04 14:44:40;;;;;;;7.93;6.43;;;;;;;;;;5079113;28;20122;-69